This is the latest recevied weather packets stored in our database for station/object SALIDA. If no packets are shown the sender has not sent any weather packets the latest 1 day(s).
| Time | Temp. | Humidity | Pressure | Rain* | Wind** | Luminosity | Snow |
|---|---|---|---|---|---|---|---|
| 1836274228 | 18.33° C | 41% | 1010.9 hPa | 0 mm | 0.45 m/s, 216° | - | - |
| 1836274078 | 18.33° C | 43% | 1010.8 hPa | 0 mm | 1.34 m/s, 335° | - | - |
| 1778048184 | 1.67° C | 81% | 1005.5 hPa | 0 mm | 2.68 m/s, 149° | - | - |
| 1778047284 | 1.67° C | 81% | 1005.7 hPa | 0 mm | 3.13 m/s, 147° | - | - |
| 1778046384 | 1.67° C | 81% | 1005.5 hPa | 0 mm | 3.13 m/s, 157° | - | - |
| 1778045484 | 1.67° C | 83% | 1005.5 hPa | 0 mm | 2.68 m/s, 155° | - | - |
| 1778044584 | 1.67° C | 83% | 1005.4 hPa | 0 mm | 2.24 m/s, 169° | - | - |
| 1778043684 | 1.67° C | 85% | 1005.5 hPa | 0 mm | 1.79 m/s, 144° | - | - |
| 1778042784 | 1.67° C | 86% | 1005 hPa | 0 mm | 2.24 m/s, 113° | - | - |
| 1778041884 | 1.67° C | 86% | 1005 hPa | 0 mm | 2.68 m/s, 170° | - | - |
| 1778040984 | 1.67° C | 86% | 1005 hPa | 0 mm | 1.79 m/s, 165° | - | - |
| 1778040084 | 1.67° C | 88% | 1004.9 hPa | 0 mm | 1.79 m/s, 157° | - | - |
| 1778039184 | 1.67° C | 88% | 1004.4 hPa | 0 mm | 2.24 m/s, 144° | - | - |
| 1778038284 | 2.22° C | 87% | 1003.9 hPa | 0 mm | 3.13 m/s, 141° | - | - |
| 1778037384 | 2.22° C | 86% | 1003.5 hPa | 0 mm | 3.13 m/s, 160° | - | - |
| 1778036484 | 2.78° C | 85% | 1002.9 hPa | 0 mm | 3.13 m/s, 136° | - | - |
| 1778035584 | 2.78° C | 84% | 1002.3 hPa | 0 mm | 4.02 m/s, 158° | - | - |
| 1778034684 | 2.78° C | 83% | 1001.6 hPa | 0 mm | 4.47 m/s, 113° | - | - |
| 1778033784 | 3.33° C | 81% | 1001 hPa | 0 mm | 4.92 m/s, 134° | - | - |
| 1778032884 | 3.33° C | 80% | 999.8 hPa | 0 mm | 4.92 m/s, 146° | - | - |
| 1778031984 | 3.89° C | 79% | 999.4 hPa | 0 mm | 5.81 m/s, 134° | - | - |
| 1778031084 | 3.89° C | 79% | 998.9 hPa | 0 mm | 5.36 m/s, 146° | - | - |
| 1778030184 | 3.89° C | 78% | 998.7 hPa | 0 mm | 5.81 m/s, 124° | - | - |
| 1778029284 | 4.44° C | 77% | 998.1 hPa | 0 mm | 4.92 m/s, 193° | - | - |
| 1778028384 | 5° C | 75% | 997.7 hPa | 0 mm | 5.81 m/s, 240° | - | - |
* Rain latest hour (hover to see other rain measurements)
** Current wind speed in m/s (hover to see current wind gust speed)